Ikke nødvendig med spesiell oppmerksomhet.   -   Ingen advarsler for øyeblikket

METAR Rapporter

 

ENZV - Stavanger
Oppdatert: 19/10/2017 06:50
delvis skyet
delvis skyet
 Vind fra Ø
Vind: Ø 19 km/h
Temperatur: 10°C
Vindkjøling: 7°C
Duggpunkt: -2°C
Fuktighet: 43%
Barometer: 1014 hPa
Skyet: delvis skyet
Sikt: 10 km
2017/10/19 04:50 ENZV 190450Z 10010KT 9999 SCT046 10/M02 Q1014 NOSIG
ENBR - Bergen
Oppdatert: 19/10/2017 06:50
klart
klart
 Vind fra varies
Vind: varies 2 km/h
Temperatur: 2°C
Duggpunkt: 2°C
Fuktighet: 100%
Barometer: 1015 hPa
Oversikt: klart
Sikt: greater than 10 km
2017/10/19 04:50 ENBR 190450Z VRB01KT CAVOK 02/02 Q1015 TEMPO 1500 BCFG SCT002 RMK WIND 1200FT 11009KT
 
ENHD - Haugesund
Oppdatert: 19/10/2017 06:50
hovedsaklig skyet
hovedsaklig skyet
 Vind fra Ø
Vind: Ø 15 km/h
Temperatur: 9°C
Vindkjøling: 7°C
Duggpunkt: 0°C
Fuktighet: 54%
Barometer: 1014 hPa
Skyet: hovedsaklig skyet
Sikt: 10 km
2017/10/19 04:50 ENHD 190450Z 10008KT 9999 FEW040 BKN049 09/M00 Q1014
ENCN - Kristiansand
Oppdatert: 19/10/2017 06:50
klart
klart
 Vind fra ØNØ
Vind: ØNØ 15 km/h
Temperatur: 4°C
Vindkjøling: 1°C
Duggpunkt: 2°C
Fuktighet: 87%
Barometer: 1017 hPa
Oversikt: klart
Sikt: greater than 10 km
2017/10/19 04:50 ENCN 190450Z 06008KT CAVOK 04/02 Q1017
 
ENBO - Bodø
Oppdatert: 19/10/2017 06:50
delvis skyet
delvis skyet
 Vind fra V
Vind: V 15 km/h
Temperatur: 6°C
Vindkjøling: 3°C
Duggpunkt: 2°C
Fuktighet: 76%
Barometer: 1017 hPa
Skyet: delvis skyet
Sikt: 10 km
2017/10/19 04:50 ENBO 190450Z 28008KT 9999 FEW025 SCT045 06/02 Q1017 NOSIG
ENKR - Kirkenes
Oppdatert: 19/10/2017 06:50
hovedsaklig skyet
hovedsaklig skyet
 Vind fra N
Vind: N 17 km/h
Temperatur: 1°C
Vindkjøling: -3°C
Duggpunkt: -1°C
Fuktighet: 87%
Barometer: 1011 hPa
Skyet: hovedsaklig skyet
Sikt: 10 km
2017/10/19 04:50 ENKR 190450Z 36009KT 9999 FEW015 SCT026 BKN043 01/M01 Q1011 RMK WIND 731FT 34010KT
 
ENVA - Trondheim
Oppdatert: 19/10/2017 06:50
Nearby fog, mostly cloudy
Nearby fog, mostly cloudy
 Vind fra ØSØ
Vind: ØSØ 9 km/h
Temperatur: 2°C
Vindkjøling: -1°C
Duggpunkt: 2°C
Fuktighet: 100%
Barometer: 1019 hPa
Oversikt: Nearby fog
Skyet: hovedsaklig skyet
Sikt: 10 km
2017/10/19 04:50 ENVA 190450Z 12005KT 090V150 9999 VCFG FEW001 BKN035 02/02 Q1019 TEMPO 1000 PRFG BKN001 RMK WIND 670FT 16008KT
ENGM - Oslo
Oppdatert: 19/10/2017 06:50
Nearby fog, partly cloudy
Nearby fog, partly cloudy
 Vind fra N
Vind: N 7 km/h
Temperatur: -2°C
Vindkjøling: -6°C
Duggpunkt: -3°C
Fuktighet: 93%
Barometer: 1019 hPa
Oversikt: Nearby fog
Skyet: delvis skyet
Sikt: 10 km
2017/10/19 04:50 ENGM 190450Z 35004KT 9999 2000E VCFG NSC M02/M03 Q1019 TEMPO 2000 BCFG